Time;durP1;ratioP1;P1;durP2;ratioP2;P2;SDS_P1;SDS_P2;PMS_P1;PMS_P2;Temp;Humidity;BMP_temperature;BMP_pressure;BME280_temperature;BME280_humidity;BME280_pressure;Samples;Min_cycle;Max_cycle;Signal;HPM_P1;HPM_P2
2023/03/17 00:01:50;;;;;;;42.33;20.03;;;-1.20;99.90;;;;;;4978110;28;20209;-83
2023/03/17 00:04:18;;;;;;;41.87;19.17;;;-1.20;99.90;;;;;;4995945;28;20527;-84
2023/03/17 00:06:45;;;;;;;39.73;16.63;;;-1.30;99.90;;;;;;4986431;28;20222;-84
2023/03/17 00:09:16;;;;;;;64.47;21.87;;;-1.20;99.90;;;;;;5033564;28;20187;-84
2023/03/17 00:11:43;;;;;;;57.50;18.70;;;-1.30;99.90;;;;;;5034241;28;20176;-84
2023/03/17 00:14:09;;;;;;;38.07;14.97;;;-1.30;99.90;;;;;;5016561;28;20239;-84
2023/03/17 00:16:41;;;;;;;41.67;15.90;;;-1.30;99.90;;;;;;5016351;28;20246;-84
2023/03/17 00:19:15;;;;;;;39.53;18.47;;;-1.40;99.90;;;;;;5016719;28;20262;-84
2023/03/17 00:21:41;;;;;;;35.00;14.40;;;-1.40;99.90;;;;;;5034439;28;20181;-83
2023/03/17 00:24:10;;;;;;;49.33;16.13;;;-1.40;99.90;;;;;;5034660;28;20666;-83
2023/03/17 00:26:36;;;;;;;55.40;18.63;;;-1.40;99.90;;;;;;5034490;28;20270;-83
2023/03/17 00:29:04;;;;;;;48.93;17.83;;;-1.40;99.90;;;;;;5017556;28;20186;-83
2023/03/17 00:31:31;;;;;;;49.70;16.10;;;-1.40;99.90;;;;;;5016328;28;20629;-84
2023/03/17 00:33:57;;;;;;;44.80;18.37;;;-1.40;99.90;;;;;;5016432;28;20215;-85
2023/03/17 00:36:29;;;;;;;42.63;17.07;;;-1.50;99.90;;;;;;5033806;28;20212;-84
2023/03/17 00:38:56;;;;;;;46.77;15.27;;;-1.50;99.90;;;;;;5033998;28;20183;-83
2023/03/17 00:41:22;;;;;;;36.70;18.53;;;-0.40;99.90;;;;;;5033862;28;20179;-84
2023/03/17 00:43:48;;;;;;;35.37;18.10;;;-1.40;99.90;;;;;;5033633;28;20186;-84
2023/03/17 00:46:34;;;;;;;52.67;19.07;;;-1.50;99.90;;;;;;5016101;28;20356;-84
2023/03/17 00:49:01;;;;;;;45.10;18.00;;;-1.50;99.90;;;;;;5017206;28;20172;-84
2023/03/17 00:51:28;;;;;;;37.70;15.53;;;-1.50;99.90;;;;;;5033554;28;20328;-83
2023/03/17 00:53:54;;;;;;;39.27;14.90;;;-1.50;99.90;;;;;;4999714;28;20180;-84
2023/03/17 00:56:20;;;;;;;52.43;16.57;;;-1.50;99.90;;;;;;5033515;28;20220;-84
2023/03/17 00:58:47;;;;;;;28.60;15.70;;;-1.20;99.90;;;;;;5029662;28;20185;-84
2023/03/17 01:01:13;;;;;;;54.80;18.20;;;-1.60;99.90;;;;;;4991429;28;20202;-84
2023/03/17 01:03:39;;;;;;;29.57;17.17;;;-1.50;99.90;;;;;;4961838;28;20216;-84
2023/03/17 01:06:09;;;;;;;37.60;17.93;;;-1.60;99.90;;;;;;4999260;28;20266;-85
2023/03/17 01:08:35;;;;;;;43.67;17.87;;;-1.60;99.90;;;;;;4993962;28;20179;-84
2023/03/17 01:11:02;;;;;;;30.00;14.93;;;-1.50;99.90;;;;;;4992804;28;20190;-82
2023/03/17 01:13:28;;;;;;;26.47;13.57;;;-1.60;99.90;;;;;;4996412;28;20196;-82
2023/03/17 01:15:55;;;;;;;33.27;13.57;;;-1.60;99.90;;;;;;5001973;28;20587;-83
2023/03/17 01:18:22;;;;;;;36.20;15.43;;;-1.60;99.90;;;;;;4976200;28;20701;-83
2023/03/17 01:20:48;;;;;;;22.83;12.10;;;-1.60;99.90;;;;;;4975454;28;20216;-82
2023/03/17 01:23:15;;;;;;;33.00;13.60;;;-1.70;99.90;;;;;;4976684;28;20185;-82
2023/03/17 01:25:41;;;;;;;28.20;14.83;;;-1.60;99.90;;;;;;4993561;28;20664;-83
2023/03/17 01:28:11;;;;;;;32.60;13.63;;;-1.60;99.90;;;;;;4962594;28;20214;-83
2023/03/17 01:30:39;;;;;;;26.80;13.60;;;-1.60;99.90;;;;;;5004321;28;20653;-82
2023/03/17 01:33:10;;;;;;;39.93;14.23;;;-1.70;99.90;;;;;;4995812;28;20178;-83
2023/03/17 01:35:37;;;;;;;54.33;16.27;;;-1.70;99.90;;;;;;5013183;28;20173;-84
2023/03/17 01:38:04;;;;;;;38.00;14.27;;;-1.70;99.90;;;;;;4995858;28;20181;-82
2023/03/17 01:40:33;;;;;;;23.53;13.43;;;-1.70;99.90;;;;;;5013005;28;20287;-84
2023/03/17 01:43:14;;;;;;;25.10;9.93;;;-1.80;99.90;;;;;;5006027;28;20261;-82
2023/03/17 01:46:19;;;;;;;33.77;12.87;;;-1.60;99.90;;;;;;4993069;28;20216;-83
2023/03/17 01:49:03;;;;;;;24.10;12.17;;;-1.80;99.90;;;;;;4975973;28;20192;-82
2023/03/17 01:51:47;;;;;;;30.27;11.63;;;-1.80;99.90;;;;;;4993804;28;20248;-82
2023/03/17 01:54:23;;;;;;;26.10;14.53;;;-1.80;99.90;;;;;;4975888;28;20197;-82
2023/03/17 01:56:51;;;;;;;23.63;9.90;;;-1.20;99.90;;;;;;5020672;28;20193;-82
2023/03/17 01:59:22;;;;;;;46.23;12.67;;;-1.80;99.90;;;;;;5032578;28;20232;-82
2023/03/17 02:01:51;;;;;;;30.80;14.37;;;-1.90;99.90;;;;;;5031017;28;20181;-83
2023/03/17 02:04:18;;;;;;;24.90;9.93;;;-1.90;99.90;;;;;;5005369;28;20190;-83
2023/03/17 02:06:45;;;;;;;39.33;13.63;;;-1.50;99.90;;;;;;5002477;28;20226;-83
2023/03/17 02:09:11;;;;;;;25.50;11.37;;;-1.90;99.90;;;;;;4983410;28;20278;-83
2023/03/17 02:11:37;;;;;;;18.80;10.70;;;-1.80;99.90;;;;;;4992150;28;20216;-83
2023/03/17 02:14:03;;;;;;;10.33;9.00;;;-1.90;99.90;;;;;;4991994;28;20197;-83
2023/03/17 02:16:30;;;;;;;18.97;11.80;;;-0.70;99.90;;;;;;4975882;28;20538;-83
2023/03/17 02:18:56;;;;;;;45.43;13.37;;;-1.90;99.90;;;;;;4993118;28;20181;-83
2023/03/17 02:21:31;;;;;;;20.87;12.80;;;-1.90;99.90;;;;;;4995776;28;20188;-83
2023/03/17 02:24:00;;;;;;;35.97;14.50;;;-1.90;99.90;;;;;;4991818;28;20244;-82
2023/03/17 02:26:30;;;;;;;22.43;12.20;;;-1.90;99.90;;;;;;5011355;28;20218;-83
2023/03/17 02:28:55;;;;;;;32.27;12.17;;;-1.80;99.90;;;;;;5012516;28;20783;-82
2023/03/17 02:31:24;;;;;;;34.90;14.27;;;-2.00;99.90;;;;;;5013174;28;20195;-82
2023/03/17 02:33:51;;;;;;;38.00;14.63;;;-0.70;99.90;;;;;;5021910;28;20273;-83
2023/03/17 02:36:17;;;;;;;33.63;15.87;;;-2.00;99.90;;;;;;5036204;28;20255;-82
2023/03/17 02:38:42;;;;;;;25.80;13.20;;;-1.20;99.90;;;;;;5035912;28;20189;-83
2023/03/17 02:41:08;;;;;;;31.47;12.40;;;-1.20;99.90;;;;;;5036039;28;20183;-83
2023/03/17 02:43:34;;;;;;;17.90;11.83;;;-2.00;99.90;;;;;;5036040;28;20184;-82
2023/03/17 02:46:01;;;;;;;21.03;10.80;;;-2.00;99.90;;;;;;5018123;28;20679;-83
2023/03/17 02:48:27;;;;;;;26.60;12.37;;;-1.60;99.90;;;;;;5035803;28;20591;-83
2023/03/17 02:50:53;;;;;;;22.00;10.87;;;-0.60;99.90;;;;;;5035597;28;20260;-82
2023/03/17 02:53:18;;;;;;;24.70;11.43;;;-2.00;99.90;;;;;;5018314;28;20266;-83
2023/03/17 02:55:44;;;;;;;19.07;11.80;;;-1.60;99.90;;;;;;5017634;28;20180;-83
2023/03/17 02:58:10;;;;;;;23.03;10.50;;;-1.90;99.90;;;;;;5001791;28;20710;-82
2023/03/17 03:00:37;;;;;;;26.23;11.77;;;-2.00;99.90;;;;;;4990681;28;20721;-82
2023/03/17 03:03:03;;;;;;;17.47;9.33;;;-2.00;99.90;;;;;;4977505;28;20192;-82
2023/03/17 03:05:28;;;;;;;26.13;12.27;;;-2.10;99.90;;;;;;4987385;28;20284;-82
2023/03/17 03:07:54;;;;;;;25.00;10.10;;;-2.10;99.90;;;;;;4978634;28;20248;-83
2023/03/17 03:10:20;;;;;;;22.87;12.93;;;-2.20;99.90;;;;;;4996180;28;20268;-82
2023/03/17 03:12:46;;;;;;;15.27;8.63;;;-2.10;99.90;;;;;;4978829;28;20213;-83
2023/03/17 03:15:12;;;;;;;18.17;9.07;;;-2.10;99.90;;;;;;4987376;28;20225;-82
2023/03/17 03:17:38;;;;;;;24.30;9.10;;;-2.20;99.90;;;;;;4994592;28;20710;-82
2023/03/17 03:20:04;;;;;;;42.73;13.27;;;-2.20;99.90;;;;;;4994574;28;20267;-82
2023/03/17 03:22:30;;;;;;;32.17;13.23;;;-2.10;99.90;;;;;;4978266;28;20192;-82
2023/03/17 03:24:56;;;;;;;22.93;15.57;;;-1.40;99.90;;;;;;4978041;28;20186;-83
2023/03/17 03:27:21;;;;;;;23.00;11.70;;;-0.90;99.90;;;;;;4994969;28;20197;-82
2023/03/17 03:29:47;;;;;;;14.53;9.13;;;-2.20;99.90;;;;;;4987465;28;20230;-84
2023/03/17 03:32:13;;;;;;;14.83;11.00;;;-2.30;99.90;;;;;;4978801;28;20551;-83
2023/03/17 03:34:38;;;;;;;23.10;9.10;;;-1.90;99.90;;;;;;4995259;28;20187;-83
2023/03/17 03:37:04;;;;;;;13.97;8.30;;;-2.30;99.90;;;;;;4986336;28;20180;-83
2023/03/17 03:39:30;;;;;;;22.87;10.00;;;-2.20;99.90;;;;;;5003503;28;20179;-83
2023/03/17 03:41:57;;;;;;;29.07;11.27;;;-1.00;99.90;;;;;;5005860;28;20184;-84
2023/03/17 03:44:23;;;;;;;31.93;11.03;;;-2.40;99.90;;;;;;5029356;28;20233;-81
2023/03/17 03:46:49;;;;;;;15.33;8.83;;;-2.40;99.90;;;;;;5014938;28;20213;-83
2023/03/17 03:49:15;;;;;;;16.17;10.00;;;-2.40;99.90;;;;;;5031848;28;20245;-82
2023/03/17 03:51:40;;;;;;;26.37;12.37;;;-2.40;99.90;;;;;;5018420;28;20635;-82
2023/03/17 03:54:06;;;;;;;19.20;8.50;;;-1.00;99.90;;;;;;5002728;28;20170;-82
2023/03/17 03:56:32;;;;;;;18.70;9.80;;;-2.40;99.90;;;;;;5015424;28;20196;-80
2023/03/17 03:58:58;;;;;;;23.10;8.60;;;-2.40;99.90;;;;;;5003179;28;20169;-86
2023/03/17 04:01:23;;;;;;;34.13;11.50;;;-2.40;99.90;;;;;;4994235;28;20247;-82
2023/03/17 04:03:50;;;;;;;15.97;8.13;;;-2.40;99.90;;;;;;4979450;28;20249;-83
2023/03/17 04:06:16;;;;;;;28.27;10.43;;;-1.00;99.90;;;;;;5005803;28;20217;-83
2023/03/17 04:08:41;;;;;;;23.17;10.37;;;-2.40;99.90;;;;;;5009742;28;20198;-82
2023/03/17 04:11:07;;;;;;;18.83;9.43;;;-1.10;99.90;;;;;;4964750;28;20251;-81
2023/03/17 04:13:33;;;;;;;19.40;10.20;;;-2.40;99.90;;;;;;5014613;28;20188;-82
2023/03/17 04:16:00;;;;;;;27.93;9.77;;;-1.80;99.90;;;;;;5014455;28;20268;-82
2023/03/17 04:18:26;;;;;;;28.67;10.70;;;-2.40;99.90;;;;;;4981082;28;20676;-81
2023/03/17 04:20:51;;;;;;;24.13;9.63;;;-2.50;99.90;;;;;;5012410;28;20283;-83
2023/03/17 04:23:17;;;;;;;19.20;11.10;;;-2.40;99.90;;;;;;5002564;28;20648;-82
2023/03/17 04:25:43;;;;;;;36.67;17.70;;;-2.50;99.90;;;;;;4979357;28;20230;-82
2023/03/17 04:28:10;;;;;;;81.53;30.13;;;-2.50;99.90;;;;;;4983042;28;20190;-82
2023/03/17 04:30:36;;;;;;;139.57;41.37;;;-1.70;99.90;;;;;;4997167;28;20241;-83
2023/03/17 04:33:02;;;;;;;94.47;34.23;;;-2.40;99.90;;;;;;4956231;28;20276;-84
2023/03/17 04:35:28;;;;;;;62.97;26.93;;;-2.50;99.90;;;;;;4994963;28;20196;-83
2023/03/17 04:37:54;;;;;;;94.23;24.37;;;-2.50;99.90;;;;;;5012419;28;20195;-83
2023/03/17 04:40:20;;;;;;;36.13;20.60;;;-2.50;99.90;;;;;;4978756;28;20701;-83
2023/03/17 04:42:45;;;;;;;35.47;15.73;;;-2.50;99.90;;;;;;5012043;28;20254;-84
2023/03/17 04:45:14;;;;;;;37.03;15.73;;;-2.10;99.90;;;;;;4986448;28;20206;-84
2023/03/17 04:47:40;;;;;;;27.63;14.53;;;-1.60;99.90;;;;;;5009752;28;20198;-84
2023/03/17 04:50:07;;;;;;;28.23;12.63;;;-1.00;99.90;;;;;;4977404;28;20661;-83
2023/03/17 04:52:35;;;;;;;32.57;14.57;;;-2.50;99.90;;;;;;4993437;28;20751;-83
2023/03/17 04:55:00;;;;;;;24.40;13.47;;;-2.50;99.90;;;;;;4992841;28;20241;-85
2023/03/17 04:57:26;;;;;;;32.30;13.83;;;-0.40;99.90;;;;;;4993253;28;20205;-82
2023/03/17 04:59:52;;;;;;;31.43;16.03;;;-1.90;99.90;;;;;;4977561;28;20548;-84
2023/03/17 05:02:18;;;;;;;35.00;13.20;;;-2.00;99.90;;;;;;4993296;28;20288;-86
2023/03/17 05:04:44;;;;;;;23.50;14.00;;;-1.40;99.90;;;;;;5007082;28;20213;-85
2023/03/17 05:07:11;;;;;;;29.93;13.03;;;-1.30;99.90;;;;;;4990462;28;20213;-82
2023/03/17 05:09:37;;;;;;;41.57;17.57;;;-2.30;99.90;;;;;;4993091;28;20194;-83
2023/03/17 05:12:03;;;;;;;34.80;16.67;;;-2.30;99.90;;;;;;5004146;28;20248;-83
2023/03/17 05:14:28;;;;;;;34.27;15.70;;;-2.30;99.90;;;;;;5007097;28;20189;-83
2023/03/17 05:16:54;;;;;;;31.83;15.57;;;-2.20;99.90;;;;;;4957136;28;20275;-83
2023/03/17 05:19:20;;;;;;;25.13;14.33;;;-2.10;99.90;;;;;;4982496;28;20186;-83
2023/03/17 05:21:46;;;;;;;34.97;16.83;;;-1.60;99.90;;;;;;4992517;28;20193;-83
2023/03/17 05:24:12;;;;;;;33.60;15.03;;;-2.10;99.90;;;;;;5002939;28;20272;-83
2023/03/17 05:26:38;;;;;;;40.07;14.43;;;-2.00;99.90;;;;;;5016513;28;20255;-84
2023/03/17 05:29:04;;;;;;;30.83;15.67;;;-1.90;99.90;;;;;;5015388;28;20287;-84
2023/03/17 05:31:30;;;;;;;30.63;15.83;;;-1.90;99.90;;;;;;5000837;28;20723;-83
2023/03/17 05:33:57;;;;;;;31.60;13.07;;;-1.80;99.90;;;;;;4993295;28;20201;-83
2023/03/17 05:36:22;;;;;;;52.03;18.87;;;-1.70;99.90;;;;;;5005630;28;20236;-83
2023/03/17 05:38:48;;;;;;;42.50;18.97;;;-1.60;99.90;;;;;;4985271;28;20195;-83
2023/03/17 05:41:14;;;;;;;41.03;18.47;;;-1.50;99.90;;;;;;4991617;28;20663;-83
2023/03/17 05:43:40;;;;;;;43.73;17.20;;;-1.40;99.90;;;;;;4960171;28;20608;-84
2023/03/17 05:46:07;;;;;;;24.23;15.80;;;-1.40;99.90;;;;;;4996472;28;20242;-85
2023/03/17 05:48:32;;;;;;;36.47;15.67;;;-1.30;99.90;;;;;;5012284;28;20238;-84
2023/03/17 05:50:59;;;;;;;44.70;19.03;;;-1.20;99.90;;;;;;4996556;28;20190;-83
2023/03/17 05:53:24;;;;;;;24.47;13.47;;;-1.10;99.90;;;;;;4993366;28;20243;-83
2023/03/17 05:55:51;;;;;;;41.07;16.60;;;-0.90;99.90;;;;;;5001035;28;20188;-83
2023/03/17 05:58:17;;;;;;;36.50;15.30;;;-0.90;99.90;;;;;;4983697;28;20736;-83
2023/03/17 06:00:43;;;;;;;44.60;14.17;;;-0.80;99.90;;;;;;5009678;28;20186;-83
2023/03/17 06:03:09;;;;;;;27.63;14.43;;;-0.60;99.90;;;;;;5012099;28;20537;-83
2023/03/17 06:05:35;;;;;;;30.60;13.00;;;-0.50;99.90;;;;;;4985509;28;20249;-83
2023/03/17 06:08:01;;;;;;;53.87;16.63;;;-0.30;99.90;;;;;;5002733;28;20190;-83
2023/03/17 06:10:27;;;;;;;29.17;11.00;;;-0.20;99.90;;;;;;4995072;28;20201;-84
2023/03/17 06:12:53;;;;;;;29.60;16.60;;;0.00;99.90;;;;;;4988808;28;20246;-84
2023/03/17 06:15:19;;;;;;;34.07;15.60;;;0.20;99.90;;;;;;4994692;28;20194;-83
2023/03/17 06:17:45;;;;;;;23.60;14.83;;;0.30;99.90;;;;;;5020070;28;20234;-84
2023/03/17 06:20:11;;;;;;;29.60;14.17;;;0.40;99.90;;;;;;4996552;28;20186;-84
2023/03/17 06:22:39;;;;;;;23.97;11.30;;;0.50;99.90;;;;;;4996645;28;20202;-84
2023/03/17 06:25:05;;;;;;;46.57;14.67;;;0.60;99.90;;;;;;4979658;28;20236;-84
2023/03/17 06:27:31;;;;;;;26.77;15.77;;;0.70;99.90;;;;;;4995372;28;20186;-84
2023/03/17 06:29:59;;;;;;;36.23;16.17;;;0.90;99.90;;;;;;4996782;28;20575;-85
2023/03/17 06:32:24;;;;;;;34.47;14.90;;;1.00;99.90;;;;;;4996416;28;20516;-85
2023/03/17 06:34:50;;;;;;;36.43;16.53;;;1.10;99.90;;;;;;4963058;28;20217;-85
2023/03/17 06:37:16;;;;;;;19.50;10.93;;;1.10;99.90;;;;;;4979206;28;20635;-85
2023/03/17 06:39:42;;;;;;;26.30;13.83;;;1.20;99.90;;;;;;4997347;28;20710;-85
2023/03/17 06:42:08;;;;;;;23.67;13.33;;;1.30;99.90;;;;;;4998841;28;20191;-85
2023/03/17 06:44:35;;;;;;;28.90;11.77;;;1.40;99.90;;;;;;4982469;28;20185;-85
2023/03/17 06:47:01;;;;;;;27.73;12.97;;;1.50;99.90;;;;;;5016164;28;20304;-85
2023/03/17 06:49:26;;;;;;;17.33;10.43;;;1.60;99.90;;;;;;4981648;28;20814;-85
2023/03/17 06:51:52;;;;;;;37.80;16.93;;;1.70;99.90;;;;;;4998722;28;20205;-85
2023/03/17 06:54:20;;;;;;;25.50;12.40;;;1.90;99.90;;;;;;4982115;28;20553;-85
2023/03/17 06:56:46;;;;;;;32.67;12.53;;;2.00;99.90;;;;;;5016140;28;20185;-85
2023/03/17 06:59:12;;;;;;;47.67;17.00;;;2.10;99.90;;;;;;5016103;28;20289;-85
2023/03/17 07:01:38;;;;;;;26.50;10.07;;;2.30;99.90;;;;;;5015656;28;20294;-85
2023/03/17 07:04:04;;;;;;;24.67;8.63;;;2.40;99.90;;;;;;5011044;28;20204;-85
2023/03/17 07:06:30;;;;;;;16.50;9.17;;;2.60;99.90;;;;;;5009806;28;20222;-84
2023/03/17 07:08:57;;;;;;;23.83;10.33;;;2.80;99.90;;;;;;5004205;28;20551;-85
2023/03/17 07:11:23;;;;;;;21.03;9.10;;;2.90;99.90;;;;;;5015578;28;20201;-85
2023/03/17 07:13:49;;;;;;;19.77;7.80;;;3.10;99.90;;;;;;5008732;28;20190;-85
2023/03/17 07:16:18;;;;;;;14.10;8.47;;;3.30;99.90;;;;;;4978537;28;20186;-85
2023/03/17 07:18:44;;;;;;;19.80;9.27;;;3.40;99.90;;;;;;4993852;28;20205;-85
2023/03/17 07:21:10;;;;;;;11.73;6.93;;;3.50;99.90;;;;;;4995021;28;20190;-85
2023/03/17 07:23:36;;;;;;;13.53;7.27;;;3.60;99.90;;;;;;4995664;28;20184;-85
2023/03/17 07:26:02;;;;;;;13.13;5.87;;;3.60;99.90;;;;;;5006086;28;20220;-85
2023/03/17 07:28:28;;;;;;;18.10;6.47;;;3.70;99.90;;;;;;4997437;28;20708;-85
2023/03/17 07:30:56;;;;;;;9.20;4.80;;;3.80;99.90;;;;;;4997079;28;20205;-85
2023/03/17 07:33:22;;;;;;;9.17;5.10;;;3.90;99.90;;;;;;4978894;28;20293;-85
2023/03/17 07:35:49;;;;;;;11.63;4.53;;;4.00;99.90;;;;;;4995494;28;20185;-85
2023/03/17 07:38:16;;;;;;;4.90;3.90;;;4.10;99.90;;;;;;4998493;28;20217;-84
2023/03/17 07:40:42;;;;;;;4.97;4.13;;;4.10;99.90;;;;;;5014344;28;20217;-85
2023/03/17 07:43:08;;;;;;;12.80;5.37;;;4.00;99.90;;;;;;5012798;28;20186;-86
2023/03/17 07:45:34;;;;;;;10.47;4.47;;;4.20;99.90;;;;;;4977924;28;20214;-85
2023/03/17 07:48:04;;;;;;;5.83;2.93;;;4.20;99.90;;;;;;4994497;28;20643;-86
2023/03/17 07:50:31;;;;;;;7.30;3.57;;;3.10;99.90;;;;;;4994034;28;20193;-86
2023/03/17 07:52:57;;;;;;;8.37;3.63;;;4.40;99.90;;;;;;4995580;28;20185;-86
2023/03/17 07:55:23;;;;;;;17.23;3.67;;;4.40;99.90;;;;;;4996962;28;20721;-86
2023/03/17 07:57:48;;;;;;;9.57;4.23;;;4.60;99.90;;;;;;4997990;28;20188;-85
2023/03/17 08:00:16;;;;;;;8.60;3.53;;;4.70;99.90;;;;;;4982922;28;20653;-85
2023/03/17 08:02:42;;;;;;;10.10;4.77;;;4.80;99.90;;;;;;5014695;28;20174;-85
2023/03/17 08:05:08;;;;;;;7.57;3.40;;;4.90;99.90;;;;;;5014644;28;20181;-85
2023/03/17 08:07:36;;;;;;;7.77;3.43;;;5.00;99.90;;;;;;5014639;28;20193;-85
2023/03/17 08:10:03;;;;;;;2.43;1.97;;;5.20;99.90;;;;;;5014822;28;20272;-85
2023/03/17 08:12:28;;;;;;;7.60;2.43;;;5.30;99.90;;;;;;4996927;28;20189;-85
2023/03/17 08:14:54;;;;;;;6.60;3.13;;;5.40;99.90;;;;;;4983248;28;20181;-85
2023/03/17 08:17:20;;;;;;;13.20;3.27;;;5.40;99.90;;;;;;5015984;28;20263;-84
2023/03/17 08:19:46;;;;;;;7.37;2.97;;;5.50;99.90;;;;;;5014856;28;20540;-85
2023/03/17 08:22:12;;;;;;;7.83;3.23;;;5.50;99.80;;;;;;5014494;28;20185;-86
2023/03/17 08:24:39;;;;;;;5.97;3.23;;;5.60;99.40;;;;;;4996398;28;20186;-85
2023/03/17 08:27:06;;;;;;;8.37;3.30;;;5.80;98.70;;;;;;5014247;28;20205;-85
2023/03/17 08:29:32;;;;;;;9.00;2.53;;;5.70;97.40;;;;;;5001191;28;20659;-86
2023/03/17 08:31:58;;;;;;;6.83;2.90;;;5.60;96.40;;;;;;4977421;28;20191;-85
2023/03/17 08:34:25;;;;;;;10.43;3.33;;;5.70;96.80;;;;;;4993108;28;20197;-86
2023/03/17 08:36:50;;;;;;;4.27;2.57;;;5.80;95.40;;;;;;4993444;28;20194;-85
2023/03/17 08:39:16;;;;;;;5.03;2.60;;;5.80;94.00;;;;;;4960925;28;20273;-85
2023/03/17 08:41:42;;;;;;;12.30;3.10;;;5.90;94.10;;;;;;4994185;28;20228;-85
2023/03/17 08:44:08;;;;;;;9.93;3.80;;;6.00;94.80;;;;;;4994289;28;20182;-85
2023/03/17 08:46:35;;;;;;;5.07;2.43;;;6.10;94.90;;;;;;4976815;28;20209;-85
2023/03/17 08:49:02;;;;;;;3.13;2.17;;;6.20;94.10;;;;;;4976977;28;20185;-85
2023/03/17 08:51:31;;;;;;;6.73;2.93;;;6.30;93.50;;;;;;4994119;28;20185;-85
2023/03/17 08:53:57;;;;;;;8.17;3.13;;;6.40;93.10;;;;;;4976792;28;20276;-85
2023/03/17 08:56:23;;;;;;;6.83;2.90;;;6.40;92.40;;;;;;4976701;28;20201;-83
2023/03/17 08:58:50;;;;;;;6.07;2.53;;;6.60;91.80;;;;;;4976439;28;20188;-84
2023/03/17 09:01:16;;;;;;;5.07;2.93;;;6.60;91.40;;;;;;4994206;28;20175;-85
2023/03/17 09:03:42;;;;;;;5.13;2.03;;;6.60;90.80;;;;;;4993852;28;20186;-85
2023/03/17 09:06:11;;;;;;;7.70;1.97;;;6.60;88.00;;;;;;4992600;28;20206;-85
2023/03/17 09:08:38;;;;;;;6.87;3.07;;;6.60;85.00;;;;;;4976339;28;20189;-85
2023/03/17 09:11:06;;;;;;;12.07;2.90;;;6.60;84.70;;;;;;4993969;28;20178;-85
2023/03/17 09:13:33;;;;;;;9.43;2.90;;;6.40;83.90;;;;;;4993690;28;20182;-86
2023/03/17 09:16:00;;;;;;;4.73;2.30;;;6.50;86.10;;;;;;4992876;28;20235;-85
2023/03/17 09:18:26;;;;;;;2.87;1.63;;;6.60;81.60;;;;;;4993890;28;20328;-85
2023/03/17 09:20:52;;;;;;;3.80;2.40;;;6.70;80.70;;;;;;4992671;28;20182;-85
2023/03/17 09:23:18;;;;;;;5.13;2.13;;;6.60;83.50;;;;;;4993070;28;20182;-85
2023/03/17 09:25:44;;;;;;;5.03;1.83;;;6.70;81.40;;;;;;4992259;28;20217;-85
2023/03/17 09:28:12;;;;;;;7.40;2.17;;;6.90;84.00;;;;;;4998515;28;20263;-85
2023/03/17 09:30:41;;;;;;;2.23;2.03;;;7.10;78.60;;;;;;5002250;28;20549;-85
2023/03/17 09:33:09;;;;;;;4.13;2.53;;;7.00;79.00;;;;;;4996167;28;20212;-85
2023/03/17 09:35:34;;;;;;;5.57;2.50;;;7.10;79.70;;;;;;4976780;28;20631;-86
2023/03/17 09:38:00;;;;;;;8.47;2.80;;;7.20;78.30;;;;;;4993822;28;20216;-86
2023/03/17 09:40:31;;;;;;;3.43;2.17;;;7.20;75.00;;;;;;4993608;28;20177;-85
2023/03/17 09:43:18;;;;;;;4.57;2.10;;;7.40;77.60;;;;;;4992457;28;20267;-85
2023/03/17 09:45:44;;;;;;;6.83;2.33;;;7.50;75.30;;;;;;4994361;28;20304;-86
2023/03/17 09:48:34;;;;;;;9.83;2.63;;;7.30;75.50;;;;;;4994658;28;20213;-86
2023/03/17 09:51:12;;;;;;;3.83;2.33;;;7.30;75.30;;;;;;4977152;28;20281;-85
2023/03/17 09:53:53;;;;;;;3.27;2.30;;;7.30;72.80;;;;;;5006638;28;20193;-86
2023/03/17 09:56:19;;;;;;;5.50;3.43;;;7.30;75.30;;;;;;5018246;28;20154;-85
2023/03/17 09:58:56;;;;;;;7.57;2.87;;;7.60;77.10;;;;;;5017951;28;20173;-86
2023/03/17 10:01:22;;;;;;;4.30;2.63;;;7.60;74.20;;;;;;5012518;28;20252;-84
2023/03/17 10:03:49;;;;;;;10.97;3.30;;;7.40;72.60;;;;;;4981452;28;20225;-85
2023/03/17 10:06:42;;;;;;;4.43;3.17;;;7.40;75.70;;;;;;5000502;28;20220;-85
2023/03/17 10:09:25;;;;;;;6.10;2.50;;;7.60;75.70;;;;;;4998899;28;20186;-85
2023/03/17 10:12:18;;;;;;;3.07;1.90;;;7.70;75.40;;;;;;5029931;28;20186;-86
2023/03/17 10:14:51;;;;;;;6.77;2.43;;;7.70;72.80;;;;;;5018296;28;20300;-86
2023/03/17 10:17:20;;;;;;;6.97;2.23;;;7.70;71.40;;;;;;5033501;28;20231;-85
2023/03/17 10:20:04;;;;;;;5.87;2.93;;;8.00;72.20;;;;;;5015794;28;20180;-86
2023/03/17 10:23:02;;;;;;;3.13;2.53;;;8.20;70.00;;;;;;5014956;28;20216;-86
2023/03/17 10:25:30;;;;;;;2.73;2.37;;;8.10;68.70;;;;;;5032615;28;20180;-85
2023/03/17 10:28:25;;;;;;;12.80;4.07;;;8.00;70.60;;;;;;5032179;28;20279;-83
2023/03/17 10:30:51;;;;;;;4.90;2.80;;;8.10;68.70;;;;;;4993378;28;20186;-85
2023/03/17 10:33:18;;;;;;;6.67;3.37;;;8.10;68.30;;;;;;4993961;28;20237;-84
2023/03/17 10:35:43;;;;;;;5.17;3.10;;;8.10;68.80;;;;;;4991616;28;20285;-84
2023/03/17 10:38:20;;;;;;;6.87;3.10;;;8.10;69.10;;;;;;4993098;28;20249;-84
2023/03/17 10:41:04;;;;;;;3.73;2.80;;;8.30;68.80;;;;;;4993122;28;20257;-84
2023/03/17 10:43:38;;;;;;;3.97;2.93;;;8.40;67.40;;;;;;4978306;28;20281;-84
2023/03/17 10:46:14;;;;;;;3.50;2.23;;;8.40;65.50;;;;;;5008538;28;20215;-84
2023/03/17 10:48:40;;;;;;;6.13;3.17;;;8.50;67.30;;;;;;5012772;28;20634;-85
2023/03/17 10:51:09;;;;;;;4.93;2.57;;;8.60;65.20;;;;;;4994982;28;20635;-85
2023/03/17 10:53:41;;;;;;;6.57;3.23;;;8.90;66.40;;;;;;4995809;28;20219;-85
2023/03/17 10:56:09;;;;;;;4.33;2.20;;;9.20;64.50;;;;;;5018211;28;20196;-85
2023/03/17 10:58:47;;;;;;;8.53;2.93;;;9.30;61.90;;;;;;5014528;28;20198;-84
2023/03/17 11:01:34;;;;;;;4.53;2.70;;;9.40;62.10;;;;;;4996298;28;20178;-84
2023/03/17 11:04:05;;;;;;;5.87;2.47;;;9.50;63.60;;;;;;4994600;28;20899;-85
2023/03/17 11:06:42;;;;;;;5.23;2.40;;;9.60;59.90;;;;;;4998150;28;20217;-84
2023/03/17 11:09:15;;;;;;;8.17;1.90;;;9.50;61.20;;;;;;4978873;28;20178;-84
2023/03/17 11:11:43;;;;;;;4.40;2.13;;;9.40;57.50;;;;;;5030305;28;20227;-85
2023/03/17 11:14:18;;;;;;;4.33;2.17;;;9.20;58.40;;;;;;5037824;28;20180;-85
2023/03/17 11:16:52;;;;;;;6.63;2.17;;;9.40;60.70;;;;;;5034970;28;20281;-84
2023/03/17 11:19:20;;;;;;;5.27;2.27;;;9.70;59.40;;;;;;5034814;28;20255;-84
2023/03/17 11:21:56;;;;;;;4.07;2.73;;;9.80;58.40;;;;;;4983961;28;20289;-85
2023/03/17 11:24:31;;;;;;;4.13;2.43;;;9.30;59.80;;;;;;4998144;28;20247;-84
2023/03/17 11:26:58;;;;;;;3.70;2.70;;;9.30;58.60;;;;;;4997379;28;20232;-84
2023/03/17 11:29:41;;;;;;;9.70;2.47;;;9.20;57.70;;;;;;5005592;28;20240;-85
2023/03/17 11:32:27;;;;;;;2.27;1.87;;;9.40;58.40;;;;;;4995457;28;20200;-85
2023/03/17 11:34:55;;;;;;;3.25;2.47;;;9.50;57.50;;;;;;4998180;28;20177;-84
2023/03/17 11:38:05;;;;;;;2.50;1.60;;;9.70;57.70;;;;;;4995755;28;20186;-85
2023/03/17 11:40:43;;;;;;;2.17;1.73;;;9.30;55.90;;;;;;4984452;28;20182;-84
2023/03/17 11:43:30;;;;;;;4.73;2.13;;;9.30;56.00;;;;;;4978049;28;20213;-85
2023/03/17 11:46:44;;;;;;;4.60;2.37;;;9.40;56.70;;;;;;4982689;28;20212;-84
2023/03/17 11:49:21;;;;;;;4.10;2.23;;;9.40;57.90;;;;;;4990081;28;20196;-84
2023/03/17 11:52:11;;;;;;;3.05;1.90;;;9.50;55.60;;;;;;4995234;28;20178;-84
2023/03/17 11:55:06;;;;;;;2.43;2.10;;;9.50;55.30;;;;;;4990926;28;20193;-84
2023/03/17 11:57:52;;;;;;;3.58;1.80;;;9.30;56.90;;;;;;5014247;28;20189;-85
2023/03/17 12:00:49;;;;;;;3.17;1.80;;;9.30;56.80;;;;;;4997274;28;20177;-84
2023/03/17 12:03:41;;;;;;;3.58;1.92;;;9.40;57.80;;;;;;5009794;28;20185;-84
2023/03/17 12:06:23;;;;;;;5.43;2.57;;;9.50;57.00;;;;;;5002595;28;20213;-85
2023/03/17 12:09:21;;;;;;;7.07;2.43;;;9.50;59.00;;;;;;4997294;28;20185;-85
2023/03/17 12:11:47;;;;;;;10.40;2.87;;;9.80;58.40;;;;;;4966788;28;20196;-85
2023/03/17 12:14:31;;;;;;;1.73;1.63;;;9.80;57.70;;;;;;4980322;28;20196;-85
2023/03/17 12:17:29;;;;;;;3.65;2.55;;;9.90;55.10;;;;;;5012671;28;20233;-85
2023/03/17 12:20:08;;;;;;;9.20;3.37;;;9.80;55.80;;;;;;4987746;28;20190;-85
2023/03/17 12:22:53;;;;;;;8.43;2.83;;;10.00;55.60;;;;;;4995964;28;20518;-85
2023/03/17 12:25:32;;;;;;;3.47;1.93;;;10.00;55.00;;;;;;4995644;28;20178;-85
2023/03/17 12:28:14;;;;;;;3.75;1.95;;;10.10;55.30;;;;;;4993312;28;20181;-85
2023/03/17 12:30:54;;;;;;;4.35;2.20;;;9.90;56.10;;;;;;4995888;28;20265;-86
2023/03/17 12:33:49;;;;;;;6.43;2.30;;;10.10;57.00;;;;;;4994567;28;20174;-85
2023/03/17 12:36:16;;;;;;;4.03;2.08;;;10.30;56.50;;;;;;4964287;28;20548;-85
2023/03/17 12:39:00;;;;;;;4.45;2.05;;;10.40;53.80;;;;;;4980265;28;20189;-85
2023/03/17 12:42:00;;;;;;;5.82;2.75;;;10.30;54.20;;;;;;5004605;28;20181;-84
2023/03/17 12:44:57;;;;;;;4.68;2.45;;;10.40;54.00;;;;;;4995482;28;20916;-85
2023/03/17 12:47:35;;;;;;;2.95;2.03;;;10.40;51.90;;;;;;4976873;28;20252;-85
2023/03/17 12:50:09;;;;;;;8.55;2.58;;;10.10;52.50;;;;;;4976681;28;20189;-85
2023/03/17 12:53:06;;;;;;;4.60;1.30;;;10.30;54.20;;;;;;4995079;28;20181;-85
2023/03/17 12:55:35;;;;;;;3.30;1.80;;;10.70;51.40;;;;;;4994725;28;20190;-85